sensor_id;sensor_type;location;lat;lon;timestamp;temperature;humidity
44775;DHT22;31340;51.402;0.016;2023-04-20T00:00:43;9.90;89.60
44775;DHT22;31340;51.402;0.016;2023-04-20T00:03:11;9.90;89.70
44775;DHT22;31340;51.402;0.016;2023-04-20T00:05:40;9.80;89.70
44775;DHT22;31340;51.402;0.016;2023-04-20T00:08:08;9.80;89.80
44775;DHT22;31340;51.402;0.016;2023-04-20T00:10:35;9.80;89.90
44775;DHT22;31340;51.402;0.016;2023-04-20T00:13:02;9.80;90.00
44775;DHT22;31340;51.402;0.016;2023-04-20T00:15:30;9.70;90.00
44775;DHT22;31340;51.402;0.016;2023-04-20T00:17:58;9.70;90.00
44775;DHT22;31340;51.402;0.016;2023-04-20T00:20:26;9.60;90.10
44775;DHT22;31340;51.402;0.016;2023-04-20T00:22:53;9.60;90.10
44775;DHT22;31340;51.402;0.016;2023-04-20T00:25:22;9.60;90.20
44775;DHT22;31340;51.402;0.016;2023-04-20T00:27:50;9.60;90.20
44775;DHT22;31340;51.402;0.016;2023-04-20T00:30:17;9.50;90.30
44775;DHT22;31340;51.402;0.016;2023-04-20T00:32:45;9.50;90.30
44775;DHT22;31340;51.402;0.016;2023-04-20T00:35:13;9.50;90.40
44775;DHT22;31340;51.402;0.016;2023-04-20T00:37:41;9.40;90.40
44775;DHT22;31340;51.402;0.016;2023-04-20T00:40:08;9.40;90.50
44775;DHT22;31340;51.402;0.016;2023-04-20T00:42:36;9.40;90.60
44775;DHT22;31340;51.402;0.016;2023-04-20T00:45:04;9.40;90.60
44775;DHT22;31340;51.402;0.016;2023-04-20T00:47:32;9.30;90.70
44775;DHT22;31340;51.402;0.016;2023-04-20T00:50:02;9.30;90.70
44775;DHT22;31340;51.402;0.016;2023-04-20T00:52:30;9.30;90.80
44775;DHT22;31340;51.402;0.016;2023-04-20T00:54:58;9.30;90.90
44775;DHT22;31340;51.402;0.016;2023-04-20T00:57:27;9.30;90.90
44775;DHT22;31340;51.402;0.016;2023-04-20T00:59:54;9.30;91.00
44775;DHT22;31340;51.402;0.016;2023-04-20T01:02:22;9.20;91.00
44775;DHT22;31340;51.402;0.016;2023-04-20T01:04:49;9.20;91.10
44775;DHT22;31340;51.402;0.016;2023-04-20T01:07:17;9.20;91.10
44775;DHT22;31340;51.402;0.016;2023-04-20T01:09:44;9.20;91.20
44775;DHT22;31340;51.402;0.016;2023-04-20T01:12:12;9.10;91.20
44775;DHT22;31340;51.402;0.016;2023-04-20T01:14:39;9.10;91.30
44775;DHT22;31340;51.402;0.016;2023-04-20T01:17:07;9.10;91.40
44775;DHT22;31340;51.402;0.016;2023-04-20T01:19:35;9.10;91.40
44775;DHT22;31340;51.402;0.016;2023-04-20T01:22:03;9.10;91.50
44775;DHT22;31340;51.402;0.016;2023-04-20T01:24:31;9.10;91.60
44775;DHT22;31340;51.402;0.016;2023-04-20T01:26:59;9.10;91.70
44775;DHT22;31340;51.402;0.016;2023-04-20T01:29:28;9.00;91.70
44775;DHT22;31340;51.402;0.016;2023-04-20T01:31:56;9.00;91.80
44775;DHT22;31340;51.402;0.016;2023-04-20T01:34:24;9.00;91.90
44775;DHT22;31340;51.402;0.016;2023-04-20T01:36:53;9.00;92.00
44775;DHT22;31340;51.402;0.016;2023-04-20T01:39:21;9.00;92.10
44775;DHT22;31340;51.402;0.016;2023-04-20T01:41:48;8.90;92.20
44775;DHT22;31340;51.402;0.016;2023-04-20T01:44:17;8.90;92.30
44775;DHT22;31340;51.402;0.016;2023-04-20T01:46:44;8.90;92.40
44775;DHT22;31340;51.402;0.016;2023-04-20T01:49:12;8.90;92.50
44775;DHT22;31340;51.402;0.016;2023-04-20T01:51:40;8.90;92.60
44775;DHT22;31340;51.402;0.016;2023-04-20T01:54:08;8.90;92.60
44775;DHT22;31340;51.402;0.016;2023-04-20T01:56:35;8.90;92.70
44775;DHT22;31340;51.402;0.016;2023-04-20T01:59:03;8.90;92.80
44775;DHT22;31340;51.402;0.016;2023-04-20T02:01:31;8.90;92.90
44775;DHT22;31340;51.402;0.016;2023-04-20T02:03:59;8.80;92.90
44775;DHT22;31340;51.402;0.016;2023-04-20T02:06:27;8.90;93.00
44775;DHT22;31340;51.402;0.016;2023-04-20T02:08:55;8.80;93.10
44775;DHT22;31340;51.402;0.016;2023-04-20T02:11:22;8.80;93.10
44775;DHT22;31340;51.402;0.016;2023-04-20T02:13:50;8.80;93.20
44775;DHT22;31340;51.402;0.016;2023-04-20T02:16:18;8.80;93.30
44775;DHT22;31340;51.402;0.016;2023-04-20T02:18:45;8.70;93.30
44775;DHT22;31340;51.402;0.016;2023-04-20T02:21:13;8.80;93.40
44775;DHT22;31340;51.402;0.016;2023-04-20T02:23:41;8.80;93.50
44775;DHT22;31340;51.402;0.016;2023-04-20T02:26:08;8.80;93.60
44775;DHT22;31340;51.402;0.016;2023-04-20T02:28:39;8.70;93.60
44775;DHT22;31340;51.402;0.016;2023-04-20T02:31:07;8.70;93.60
44775;DHT22;31340;51.402;0.016;2023-04-20T02:33:35;8.70;93.70
44775;DHT22;31340;51.402;0.016;2023-04-20T02:36:03;8.70;93.80
44775;DHT22;31340;51.402;0.016;2023-04-20T02:38:32;8.70;93.90
44775;DHT22;31340;51.402;0.016;2023-04-20T02:41:00;8.60;94.00
44775;DHT22;31340;51.402;0.016;2023-04-20T02:43:30;8.60;94.00
44775;DHT22;31340;51.402;0.016;2023-04-20T02:45:58;8.60;94.10
44775;DHT22;31340;51.402;0.016;2023-04-20T02:48:26;8.60;94.20
44775;DHT22;31340;51.402;0.016;2023-04-20T02:50:55;8.60;94.20
44775;DHT22;31340;51.402;0.016;2023-04-20T02:53:26;8.60;94.30
44775;DHT22;31340;51.402;0.016;2023-04-20T02:56:16;8.60;94.40
44775;DHT22;31340;51.402;0.016;2023-04-20T02:58:50;8.50;94.40
44775;DHT22;31340;51.402;0.016;2023-04-20T03:01:28;8.50;94.50
44775;DHT22;31340;51.402;0.016;2023-04-20T03:04:09;8.50;94.50
44775;DHT22;31340;51.402;0.016;2023-04-20T03:06:43;8.50;94.50
44775;DHT22;31340;51.402;0.016;2023-04-20T03:09:16;8.50;94.60
44775;DHT22;31340;51.402;0.016;2023-04-20T03:12:07;8.50;94.70
44775;DHT22;31340;51.402;0.016;2023-04-20T03:14:48;8.40;94.70
44775;DHT22;31340;51.402;0.016;2023-04-20T03:17:19;8.40;94.80
44775;DHT22;31340;51.402;0.016;2023-04-20T03:19:46;8.40;94.90
44775;DHT22;31340;51.402;0.016;2023-04-20T03:22:14;8.40;94.90
44775;DHT22;31340;51.402;0.016;2023-04-20T03:24:42;8.40;95.00
44775;DHT22;31340;51.402;0.016;2023-04-20T03:27:23;8.40;95.10
44775;DHT22;31340;51.402;0.016;2023-04-20T03:30:01;8.40;95.10
44775;DHT22;31340;51.402;0.016;2023-04-20T03:32:30;8.40;95.20
44775;DHT22;31340;51.402;0.016;2023-04-20T03:34:59;8.40;95.30
44775;DHT22;31340;51.402;0.016;2023-04-20T03:37:28;8.40;95.30
44775;DHT22;31340;51.402;0.016;2023-04-20T03:39:55;8.40;95.40
44775;DHT22;31340;51.402;0.016;2023-04-20T03:42:24;8.30;95.40
44775;DHT22;31340;51.402;0.016;2023-04-20T03:44:54;8.30;95.50
44775;DHT22;31340;51.402;0.016;2023-04-20T03:47:22;8.30;95.60
44775;DHT22;31340;51.402;0.016;2023-04-20T03:49:49;8.30;95.60
44775;DHT22;31340;51.402;0.016;2023-04-20T03:52:17;8.30;95.60
44775;DHT22;31340;51.402;0.016;2023-04-20T03:54:45;8.30;95.70
44775;DHT22;31340;51.402;0.016;2023-04-20T03:57:15;8.30;95.70
44775;DHT22;31340;51.402;0.016;2023-04-20T03:59:43;8.30;95.70
44775;DHT22;31340;51.402;0.016;2023-04-20T04:02:15;8.20;95.80
44775;DHT22;31340;51.402;0.016;2023-04-20T04:04:46;8.20;95.90
44775;DHT22;31340;51.402;0.016;2023-04-20T04:07:13;8.20;95.90
44775;DHT22;31340;51.402;0.016;2023-04-20T04:09:42;8.20;95.90
44775;DHT22;31340;51.402;0.016;2023-04-20T04:12:11;8.20;96.00
44775;DHT22;31340;51.402;0.016;2023-04-20T04:14:40;8.20;96.00
44775;DHT22;31340;51.402;0.016;2023-04-20T04:17:09;8.20;96.10
44775;DHT22;31340;51.402;0.016;2023-04-20T04:19:40;8.20;96.20
44775;DHT22;31340;51.402;0.016;2023-04-20T04:22:09;8.20;96.20
44775;DHT22;31340;51.402;0.016;2023-04-20T04:24:46;8.10;96.20
44775;DHT22;31340;51.402;0.016;2023-04-20T04:27:17;8.10;96.20
44775;DHT22;31340;51.402;0.016;2023-04-20T04:29:52;8.10;96.10
44775;DHT22;31340;51.402;0.016;2023-04-20T04:37:21;8.10;96.40
44775;DHT22;31340;51.402;0.016;2023-04-20T04:39:53;8.00;96.20
44775;DHT22;31340;51.402;0.016;2023-04-20T04:42:32;8.00;96.70
44775;DHT22;31340;51.402;0.016;2023-04-20T04:45:03;8.00;96.40
44775;DHT22;31340;51.402;0.016;2023-04-20T04:47:34;8.00;96.50
44775;DHT22;31340;51.402;0.016;2023-04-20T04:50:03;8.00;96.50
44775;DHT22;31340;51.402;0.016;2023-04-20T04:52:32;8.00;96.60
44775;DHT22;31340;51.402;0.016;2023-04-20T04:55:00;8.00;96.60
44775;DHT22;31340;51.402;0.016;2023-04-20T04:57:36;7.90;96.60
44775;DHT22;31340;51.402;0.016;2023-04-20T05:00:05;8.00;96.60
44775;DHT22;31340;51.402;0.016;2023-04-20T05:02:35;7.90;96.60
44775;DHT22;31340;51.402;0.016;2023-04-20T05:05:04;7.90;96.60
44775;DHT22;31340;51.402;0.016;2023-04-20T05:07:36;7.90;96.60
44775;DHT22;31340;51.402;0.016;2023-04-20T05:10:06;7.90;96.60
44775;DHT22;31340;51.402;0.016;2023-04-20T05:12:34;7.90;96.70
44775;DHT22;31340;51.402;0.016;2023-04-20T05:15:01;7.90;96.70
44775;DHT22;31340;51.402;0.016;2023-04-20T05:17:29;7.90;96.80
44775;DHT22;31340;51.402;0.016;2023-04-20T05:19:57;7.80;96.80
44775;DHT22;31340;51.402;0.016;2023-04-20T05:22:25;7.80;96.80
44775;DHT22;31340;51.402;0.016;2023-04-20T05:24:53;7.80;96.90
44775;DHT22;31340;51.402;0.016;2023-04-20T05:27:21;7.80;96.90
44775;DHT22;31340;51.402;0.016;2023-04-20T05:29:49;7.80;96.90
44775;DHT22;31340;51.402;0.016;2023-04-20T05:32:17;7.80;96.90
44775;DHT22;31340;51.402;0.016;2023-04-20T05:34:45;7.80;97.00
44775;DHT22;31340;51.402;0.016;2023-04-20T05:37:14;7.80;97.40
44775;DHT22;31340;51.402;0.016;2023-04-20T05:39:42;7.80;97.10
44775;DHT22;31340;51.402;0.016;2023-04-20T05:42:10;7.80;97.10
44775;DHT22;31340;51.402;0.016;2023-04-20T05:44:37;7.80;97.20
44775;DHT22;31340;51.402;0.016;2023-04-20T05:47:07;7.80;97.20
44775;DHT22;31340;51.402;0.016;2023-04-20T05:49:35;7.80;97.30
44775;DHT22;31340;51.402;0.016;2023-04-20T05:52:03;7.90;97.40
44775;DHT22;31340;51.402;0.016;2023-04-20T05:54:30;7.90;97.40
44775;DHT22;31340;51.402;0.016;2023-04-20T05:56:58;7.90;97.50
44775;DHT22;31340;51.402;0.016;2023-04-20T05:59:26;7.90;97.80
44775;DHT22;31340;51.402;0.016;2023-04-20T06:01:54;7.90;97.50
44775;DHT22;31340;51.402;0.016;2023-04-20T06:04:22;8.00;97.60
44775;DHT22;31340;51.402;0.016;2023-04-20T06:06:53;7.90;97.60
44775;DHT22;31340;51.402;0.016;2023-04-20T06:09:21;8.00;97.60
44775;DHT22;31340;51.402;0.016;2023-04-20T06:11:49;8.00;97.70
44775;DHT22;31340;51.402;0.016;2023-04-20T06:14:17;8.10;97.70
44775;DHT22;31340;51.402;0.016;2023-04-20T06:16:44;8.00;97.70
44775;DHT22;31340;51.402;0.016;2023-04-20T06:19:12;8.10;97.70
44775;DHT22;31340;51.402;0.016;2023-04-20T06:21:40;8.10;97.70
44775;DHT22;31340;51.402;0.016;2023-04-20T06:24:08;8.20;97.70
44775;DHT22;31340;51.402;0.016;2023-04-20T06:26:36;8.20;97.70
44775;DHT22;31340;51.402;0.016;2023-04-20T06:29:03;8.20;97.70
44775;DHT22;31340;51.402;0.016;2023-04-20T06:31:31;8.30;97.80
44775;DHT22;31340;51.402;0.016;2023-04-20T06:33:59;8.30;97.80
44775;DHT22;31340;51.402;0.016;2023-04-20T06:36:27;8.30;97.70
44775;DHT22;31340;51.402;0.016;2023-04-20T06:38:57;8.40;97.70
44775;DHT22;31340;51.402;0.016;2023-04-20T06:41:25;8.40;97.60
44775;DHT22;31340;51.402;0.016;2023-04-20T06:43:53;8.40;97.60
44775;DHT22;31340;51.402;0.016;2023-04-20T06:46:20;8.50;97.60
44775;DHT22;31340;51.402;0.016;2023-04-20T06:48:48;8.50;97.60
44775;DHT22;31340;51.402;0.016;2023-04-20T06:51:16;8.60;97.60
44775;DHT22;31340;51.402;0.016;2023-04-20T06:53:44;8.60;97.50
44775;DHT22;31340;51.402;0.016;2023-04-20T06:56:15;8.60;97.50
44775;DHT22;31340;51.402;0.016;2023-04-20T06:58:43;8.70;97.50
44775;DHT22;31340;51.402;0.016;2023-04-20T07:01:11;8.70;97.40
44775;DHT22;31340;51.402;0.016;2023-04-20T07:03:39;8.80;97.30
44775;DHT22;31340;51.402;0.016;2023-04-20T07:06:08;8.90;97.30
44775;DHT22;31340;51.402;0.016;2023-04-20T07:08:38;8.90;97.20
44775;DHT22;31340;51.402;0.016;2023-04-20T07:11:06;9.00;97.20
44775;DHT22;31340;51.402;0.016;2023-04-20T07:13:37;9.00;97.10
44775;DHT22;31340;51.402;0.016;2023-04-20T07:16:06;9.10;97.10
44775;DHT22;31340;51.402;0.016;2023-04-20T07:18:34;9.10;97.00
44775;DHT22;31340;51.402;0.016;2023-04-20T07:21:02;9.20;97.00
44775;DHT22;31340;51.402;0.016;2023-04-20T07:23:30;9.20;97.00
44775;DHT22;31340;51.402;0.016;2023-04-20T07:25:58;9.30;96.90
44775;DHT22;31340;51.402;0.016;2023-04-20T07:28:29;9.40;96.90
44775;DHT22;31340;51.402;0.016;2023-04-20T07:30:57;9.50;96.80
44775;DHT22;31340;51.402;0.016;2023-04-20T07:33:26;9.60;96.70
44775;DHT22;31340;51.402;0.016;2023-04-20T07:35:56;9.60;96.60
44775;DHT22;31340;51.402;0.016;2023-04-20T07:38:24;9.70;96.60
44775;DHT22;31340;51.402;0.016;2023-04-20T07:40:52;9.80;96.50
44775;DHT22;31340;51.402;0.016;2023-04-20T07:43:19;9.90;96.50
44775;DHT22;31340;51.402;0.016;2023-04-20T07:45:47;9.90;96.40
44775;DHT22;31340;51.402;0.016;2023-04-20T07:48:15;10.00;96.40
44775;DHT22;31340;51.402;0.016;2023-04-20T07:50:43;10.10;96.30
44775;DHT22;31340;51.402;0.016;2023-04-20T07:53:11;10.20;96.20
44775;DHT22;31340;51.402;0.016;2023-04-20T07:55:48;10.30;96.00
44775;DHT22;31340;51.402;0.016;2023-04-20T07:58:18;10.40;95.90
44775;DHT22;31340;51.402;0.016;2023-04-20T08:00:49;10.50;95.80
44775;DHT22;31340;51.402;0.016;2023-04-20T08:03:17;10.60;95.70
44775;DHT22;31340;51.402;0.016;2023-04-20T08:05:45;10.70;95.70
44775;DHT22;31340;51.402;0.016;2023-04-20T08:08:13;10.80;95.50
44775;DHT22;31340;51.402;0.016;2023-04-20T08:10:41;11.00;95.50
44775;DHT22;31340;51.402;0.016;2023-04-20T08:13:13;11.00;95.30
44775;DHT22;31340;51.402;0.016;2023-04-20T08:15:40;11.20;95.10
44775;DHT22;31340;51.402;0.016;2023-04-20T08:18:08;11.30;94.70
44775;DHT22;31340;51.402;0.016;2023-04-20T08:20:37;11.50;94.30
44775;DHT22;31340;51.402;0.016;2023-04-20T08:23:05;11.50;94.10
44775;DHT22;31340;51.402;0.016;2023-04-20T08:25:33;11.60;94.00
44775;DHT22;31340;51.402;0.016;2023-04-20T08:28:01;11.80;93.80
44775;DHT22;31340;51.402;0.016;2023-04-20T08:30:33;11.90;93.50
44775;DHT22;31340;51.402;0.016;2023-04-20T08:33:02;12.00;93.10
44775;DHT22;31340;51.402;0.016;2023-04-20T08:35:30;12.10;92.70
44775;DHT22;31340;51.402;0.016;2023-04-20T08:37:58;12.20;92.70
44775;DHT22;31340;51.402;0.016;2023-04-20T08:40:27;12.30;92.10
44775;DHT22;31340;51.402;0.016;2023-04-20T08:43:00;12.50;91.50
44775;DHT22;31340;51.402;0.016;2023-04-20T08:45:28;12.50;91.00
44775;DHT22;31340;51.402;0.016;2023-04-20T08:47:57;12.60;90.70
44775;DHT22;31340;51.402;0.016;2023-04-20T08:50:26;12.70;90.30
44775;DHT22;31340;51.402;0.016;2023-04-20T08:52:54;12.80;89.80
44775;DHT22;31340;51.402;0.016;2023-04-20T08:55:22;12.90;88.30
44775;DHT22;31340;51.402;0.016;2023-04-20T08:57:49;13.00;86.50
44775;DHT22;31340;51.402;0.016;2023-04-20T09:00:17;13.10;85.80
44775;DHT22;31340;51.402;0.016;2023-04-20T09:02:54;13.20;85.40
44775;DHT22;31340;51.402;0.016;2023-04-20T09:05:29;13.20;84.50
44775;DHT22;31340;51.402;0.016;2023-04-20T09:07:59;13.30;84.40
44775;DHT22;31340;51.402;0.016;2023-04-20T09:10:39;13.40;83.60
44775;DHT22;31340;51.402;0.016;2023-04-20T09:13:20;13.40;81.60
44775;DHT22;31340;51.402;0.016;2023-04-20T09:15:47;13.50;82.00
44775;DHT22;31340;51.402;0.016;2023-04-20T09:18:15;13.60;81.20
44775;DHT22;31340;51.402;0.016;2023-04-20T09:20:43;13.70;80.80
44775;DHT22;31340;51.402;0.016;2023-04-20T09:23:17;13.80;79.60
44775;DHT22;31340;51.402;0.016;2023-04-20T09:25:49;13.90;78.60
44775;DHT22;31340;51.402;0.016;2023-04-20T09:28:17;14.10;77.70
44775;DHT22;31340;51.402;0.016;2023-04-20T09:30:47;14.20;76.80
44775;DHT22;31340;51.402;0.016;2023-04-20T09:33:17;14.20;75.20
44775;DHT22;31340;51.402;0.016;2023-04-20T09:35:46;14.30;74.80
44775;DHT22;31340;51.402;0.016;2023-04-20T09:38:15;14.40;75.00
44775;DHT22;31340;51.402;0.016;2023-04-20T09:40:44;14.50;75.30
44775;DHT22;31340;51.402;0.016;2023-04-20T09:43:18;14.60;73.60
44775;DHT22;31340;51.402;0.016;2023-04-20T09:45:46;14.80;72.60
44775;DHT22;31340;51.402;0.016;2023-04-20T09:48:14;14.80;71.40
44775;DHT22;31340;51.402;0.016;2023-04-20T09:50:46;14.90;71.10
44775;DHT22;31340;51.402;0.016;2023-04-20T09:53:18;15.10;71.00
44775;DHT22;31340;51.402;0.016;2023-04-20T09:55:50;15.10;71.20
44775;DHT22;31340;51.402;0.016;2023-04-20T09:58:19;15.30;69.40
44775;DHT22;31340;51.402;0.016;2023-04-20T10:00:48;15.40;68.10
44775;DHT22;31340;51.402;0.016;2023-04-20T10:03:17;15.40;67.80
44775;DHT22;31340;51.402;0.016;2023-04-20T10:05:46;15.60;67.50
44775;DHT22;31340;51.402;0.016;2023-04-20T10:08:14;15.60;66.60
44775;DHT22;31340;51.402;0.016;2023-04-20T10:10:44;15.70;66.50
44775;DHT22;31340;51.402;0.016;2023-04-20T10:13:14;15.80;65.40
44775;DHT22;31340;51.402;0.016;2023-04-20T10:15:42;15.90;65.20
44775;DHT22;31340;51.402;0.016;2023-04-20T10:18:21;16.00;65.20
44775;DHT22;31340;51.402;0.016;2023-04-20T10:21:04;16.00;64.40
44775;DHT22;31340;51.402;0.016;2023-04-20T10:23:33;16.10;63.80
44775;DHT22;31340;51.402;0.016;2023-04-20T10:26:01;16.10;64.70
44775;DHT22;31340;51.402;0.016;2023-04-20T10:28:40;16.20;64.10
44775;DHT22;31340;51.402;0.016;2023-04-20T10:31:10;16.30;63.60
44775;DHT22;31340;51.402;0.016;2023-04-20T10:33:51;16.40;63.80
44775;DHT22;31340;51.402;0.016;2023-04-20T10:36:28;16.50;63.30
44775;DHT22;31340;51.402;0.016;2023-04-20T10:39:00;16.60;67.10
44775;DHT22;31340;51.402;0.016;2023-04-20T10:41:31;16.80;65.30
44775;DHT22;31340;51.402;0.016;2023-04-20T10:44:07;17.00;64.30
44775;DHT22;31340;51.402;0.016;2023-04-20T10:46:35;17.20;61.10
44775;DHT22;31340;51.402;0.016;2023-04-20T10:49:03;17.40;60.00
44775;DHT22;31340;51.402;0.016;2023-04-20T10:51:31;17.60;60.40
44775;DHT22;31340;51.402;0.016;2023-04-20T10:54:02;17.80;59.60
44775;DHT22;31340;51.402;0.016;2023-04-20T10:56:39;18.00;58.50
44775;DHT22;31340;51.402;0.016;2023-04-20T10:59:09;18.20;57.70
44775;DHT22;31340;51.402;0.016;2023-04-20T11:01:38;18.30;57.80
44775;DHT22;31340;51.402;0.016;2023-04-20T11:04:07;18.60;57.60
44775;DHT22;31340;51.402;0.016;2023-04-20T11:06:40;18.80;56.70
44775;DHT22;31340;51.402;0.016;2023-04-20T11:09:23;19.00;56.40
44775;DHT22;31340;51.402;0.016;2023-04-20T11:12:00;19.20;54.80
44775;DHT22;31340;51.402;0.016;2023-04-20T11:14:30;19.40;55.00
44775;DHT22;31340;51.402;0.016;2023-04-20T11:16:57;19.60;54.10
44775;DHT22;31340;51.402;0.016;2023-04-20T11:19:29;19.80;53.40
44775;DHT22;31340;51.402;0.016;2023-04-20T11:21:57;20.00;52.80
44775;DHT22;31340;51.402;0.016;2023-04-20T11:24:27;20.10;51.30
44775;DHT22;31340;51.402;0.016;2023-04-20T11:26:55;20.10;50.60
44775;DHT22;31340;51.402;0.016;2023-04-20T11:32:09;20.20;49.60
44775;DHT22;31340;51.402;0.016;2023-04-20T11:34:38;20.20;49.80
44775;DHT22;31340;51.402;0.016;2023-04-20T11:37:08;20.20;49.80
44775;DHT22;31340;51.402;0.016;2023-04-20T11:39:37;20.20;49.80
44775;DHT22;31340;51.402;0.016;2023-04-20T11:42:05;20.20;49.10
44775;DHT22;31340;51.402;0.016;2023-04-20T11:44:34;20.20;48.50
44775;DHT22;31340;51.402;0.016;2023-04-20T11:47:04;20.30;48.80
44775;DHT22;31340;51.402;0.016;2023-04-20T11:49:39;20.30;48.60
44775;DHT22;31340;51.402;0.016;2023-04-20T11:52:07;20.30;48.60
44775;DHT22;31340;51.402;0.016;2023-04-20T11:54:36;20.50;48.60
44775;DHT22;31340;51.402;0.016;2023-04-20T11:57:04;20.60;47.80
44775;DHT22;31340;51.402;0.016;2023-04-20T11:59:33;20.70;47.50
44775;DHT22;31340;51.402;0.016;2023-04-20T12:02:04;20.80;47.10
44775;DHT22;31340;51.402;0.016;2023-04-20T12:04:32;20.90;45.90
44775;DHT22;31340;51.402;0.016;2023-04-20T12:07:01;21.00;45.40
44775;DHT22;31340;51.402;0.016;2023-04-20T12:09:30;21.00;45.00
44775;DHT22;31340;51.402;0.016;2023-04-20T12:12:06;21.00;44.70
44775;DHT22;31340;51.402;0.016;2023-04-20T12:14:35;21.00;44.60
44775;DHT22;31340;51.402;0.016;2023-04-20T12:17:04;20.90;44.70
44775;DHT22;31340;51.402;0.016;2023-04-20T12:19:32;20.90;44.80
44775;DHT22;31340;51.402;0.016;2023-04-20T12:22:00;21.00;44.20
44775;DHT22;31340;51.402;0.016;2023-04-20T12:24:28;21.00;43.70
44775;DHT22;31340;51.402;0.016;2023-04-20T12:26:56;21.00;43.40
44775;DHT22;31340;51.402;0.016;2023-04-20T12:29:26;21.10;43.20
44775;DHT22;31340;51.402;0.016;2023-04-20T12:31:54;21.30;43.10
44775;DHT22;31340;51.402;0.016;2023-04-20T12:34:22;21.40;43.00
44775;DHT22;31340;51.402;0.016;2023-04-20T12:36:50;21.60;42.70
44775;DHT22;31340;51.402;0.016;2023-04-20T12:39:18;21.80;42.20
44775;DHT22;31340;51.402;0.016;2023-04-20T12:41:46;21.90;42.10
44775;DHT22;31340;51.402;0.016;2023-04-20T12:44:14;22.10;41.60
44775;DHT22;31340;51.402;0.016;2023-04-20T12:46:42;22.30;41.80
44775;DHT22;31340;51.402;0.016;2023-04-20T12:49:10;22.50;41.50
44775;DHT22;31340;51.402;0.016;2023-04-20T12:51:38;22.70;40.90
44775;DHT22;31340;51.402;0.016;2023-04-20T12:54:07;22.80;40.80
44775;DHT22;31340;51.402;0.016;2023-04-20T12:56:35;23.00;40.10
44775;DHT22;31340;51.402;0.016;2023-04-20T12:59:03;23.10;39.50
44775;DHT22;31340;51.402;0.016;2023-04-20T13:01:31;23.20;38.90
44775;DHT22;31340;51.402;0.016;2023-04-20T13:03:59;23.30;38.90
44775;DHT22;31340;51.402;0.016;2023-04-20T13:06:28;23.40;37.90
44775;DHT22;31340;51.402;0.016;2023-04-20T13:08:55;23.50;37.70
44775;DHT22;31340;51.402;0.016;2023-04-20T13:11:23;23.60;37.40
44775;DHT22;31340;51.402;0.016;2023-04-20T13:13:53;23.60;37.60
44775;DHT22;31340;51.402;0.016;2023-04-20T13:16:22;23.80;38.50
44775;DHT22;31340;51.402;0.016;2023-04-20T13:18:50;23.90;37.10
44775;DHT22;31340;51.402;0.016;2023-04-20T13:21:18;24.00;37.30
44775;DHT22;31340;51.402;0.016;2023-04-20T13:23:45;24.10;37.20
44775;DHT22;31340;51.402;0.016;2023-04-20T13:26:13;24.30;36.50
44775;DHT22;31340;51.402;0.016;2023-04-20T13:28:41;24.30;35.20
44775;DHT22;31340;51.402;0.016;2023-04-20T13:31:09;24.40;35.00
44775;DHT22;31340;51.402;0.016;2023-04-20T13:33:38;24.40;34.60
44775;DHT22;31340;51.402;0.016;2023-04-20T13:36:07;24.50;34.40
44775;DHT22;31340;51.402;0.016;2023-04-20T13:38:35;24.50;33.90
44775;DHT22;31340;51.402;0.016;2023-04-20T13:41:03;24.50;33.30
44775;DHT22;31340;51.402;0.016;2023-04-20T13:43:31;24.50;32.90
44775;DHT22;31340;51.402;0.016;2023-04-20T13:45:59;24.60;32.70
44775;DHT22;31340;51.402;0.016;2023-04-20T13:48:27;24.60;32.80
44775;DHT22;31340;51.402;0.016;2023-04-20T13:50:54;24.80;32.70
44775;DHT22;31340;51.402;0.016;2023-04-20T13:53:22;24.90;32.80
44775;DHT22;31340;51.402;0.016;2023-04-20T13:55:50;25.10;32.10
44775;DHT22;31340;51.402;0.016;2023-04-20T13:58:18;25.10;31.60
44775;DHT22;31340;51.402;0.016;2023-04-20T14:00:46;25.20;31.70
44775;DHT22;31340;51.402;0.016;2023-04-20T14:03:14;25.40;31.60
44775;DHT22;31340;51.402;0.016;2023-04-20T14:05:46;25.50;31.00
44775;DHT22;31340;51.402;0.016;2023-04-20T14:08:15;25.60;30.60
44775;DHT22;31340;51.402;0.016;2023-04-20T14:10:43;25.70;30.10
44775;DHT22;31340;51.402;0.016;2023-04-20T14:13:13;25.80;30.40
44775;DHT22;31340;51.402;0.016;2023-04-20T14:15:41;25.90;30.50
44775;DHT22;31340;51.402;0.016;2023-04-20T14:18:09;26.00;30.20
44775;DHT22;31340;51.402;0.016;2023-04-20T14:20:38;26.10;30.40
44775;DHT22;31340;51.402;0.016;2023-04-20T14:23:06;26.20;30.30
44775;DHT22;31340;51.402;0.016;2023-04-20T14:25:46;26.30;30.20
44775;DHT22;31340;51.402;0.016;2023-04-20T14:28:14;26.20;29.80
44775;DHT22;31340;51.402;0.016;2023-04-20T14:30:44;26.10;29.80
44775;DHT22;31340;51.402;0.016;2023-04-20T14:33:12;26.00;29.90
44775;DHT22;31340;51.402;0.016;2023-04-20T14:35:40;25.90;30.20
44775;DHT22;31340;51.402;0.016;2023-04-20T14:38:09;25.90;30.50
44775;DHT22;31340;51.402;0.016;2023-04-20T14:40:37;25.70;30.90
44775;DHT22;31340;51.402;0.016;2023-04-20T14:43:06;25.60;31.20
44775;DHT22;31340;51.402;0.016;2023-04-20T14:45:34;25.50;31.30
44775;DHT22;31340;51.402;0.016;2023-04-20T14:48:02;25.40;31.70
44775;DHT22;31340;51.402;0.016;2023-04-20T14:50:30;25.20;31.80
44775;DHT22;31340;51.402;0.016;2023-04-20T14:52:58;25.00;32.20
44775;DHT22;31340;51.402;0.016;2023-04-20T14:55:26;25.00;32.60
44775;DHT22;31340;51.402;0.016;2023-04-20T14:57:56;24.80;33.20
44775;DHT22;31340;51.402;0.016;2023-04-20T15:00:25;24.60;33.40
44775;DHT22;31340;51.402;0.016;2023-04-20T15:02:54;24.40;33.70
44775;DHT22;31340;51.402;0.016;2023-04-20T15:05:24;24.10;34.00
44775;DHT22;31340;51.402;0.016;2023-04-20T15:07:53;23.90;34.50
44775;DHT22;31340;51.402;0.016;2023-04-20T15:10:21;23.60;35.00
44775;DHT22;31340;51.402;0.016;2023-04-20T15:12:48;23.30;35.60
44775;DHT22;31340;51.402;0.016;2023-04-20T15:15:16;23.00;36.10
44775;DHT22;31340;51.402;0.016;2023-04-20T15:17:45;22.70;37.50
44775;DHT22;31340;51.402;0.016;2023-04-20T15:20:13;22.30;39.60
44775;DHT22;31340;51.402;0.016;2023-04-20T15:22:41;22.00;41.30
44775;DHT22;31340;51.402;0.016;2023-04-20T15:25:09;21.60;42.90
44775;DHT22;31340;51.402;0.016;2023-04-20T15:27:37;21.30;44.20
44775;DHT22;31340;51.402;0.016;2023-04-20T15:30:06;21.00;45.30
44775;DHT22;31340;51.402;0.016;2023-04-20T15:32:34;20.60;46.40
44775;DHT22;31340;51.402;0.016;2023-04-20T15:35:01;20.30;47.30
44775;DHT22;31340;51.402;0.016;2023-04-20T15:37:30;20.00;48.10
44775;DHT22;31340;51.402;0.016;2023-04-20T15:39:57;19.70;49.00
44775;DHT22;31340;51.402;0.016;2023-04-20T15:42:25;19.50;50.20
44775;DHT22;31340;51.402;0.016;2023-04-20T15:44:54;19.20;51.10
44775;DHT22;31340;51.402;0.016;2023-04-20T15:47:21;18.90;51.50
44775;DHT22;31340;51.402;0.016;2023-04-20T15:49:49;18.60;52.10
44775;DHT22;31340;51.402;0.016;2023-04-20T15:52:17;18.30;52.70
44775;DHT22;31340;51.402;0.016;2023-04-20T15:54:45;18.10;53.60
44775;DHT22;31340;51.402;0.016;2023-04-20T15:57:13;17.80;54.90